PWSweather.com
Personal Weather Stations
Station Observations
WISCHPK61
Green Bay Schmitt Park, Green Bay, WI 54311

Green Bay Schmitt ParkGreen Bay, WI 54311

Lat: 44.514277, Lon: -87.935067

Elevation: 735

Station Type: Acu Rite Pro Weather Center model 02032C

http://greenbayweathercam.com

High Low Average
Temperature 78.6°F25.9°C 44.2°F6.8°C 57.1°F13.9°C
Dew Point 78.3°F25.7°C 40.5°F4.7°C 53.9°F12.2°C
Winds 1.2 mph 1.9 kmh Calm Calm Calm SCalm S
Wind Gusts 1.2 mph1.9 kmh -- --
Humidity 99% 53% 90%
Pressure 29.37 in994.6 mb 29.12 in986.1 mb -
Precipitation 0.00 in0.0 mm - -
Hour Temp Dew Point Humidity Winds Wind Gusts Pressure Precip Precip Rate Daily Precip Total
12:00 AM 52.9°F11.6°C 48.8°F9.3°C 86% Calm Calm -- 29.12 in986.1 mb - 0.00 in0.0 mm 0.00 in0.0 mm
01:00 AM 52.9°F11.6°C 49.7°F9.8°C 89% Calm Calm -- 29.12 in986.1 mb - 0.00 in0.0 mm 0.00 in0.0 mm
02:00 AM 52.9°F11.6°C 50.6°F10.3°C 92% Calm Calm -- 29.12 in986.1 mb - 0.00 in0.0 mm 0.00 in0.0 mm
03:00 AM 52.9°F11.6°C 51.8°F11.0°C 96% Calm Calm -- 29.12 in986.1 mb - 0.00 in0.0 mm 0.00 in0.0 mm
04:00 AM 52.9°F11.6°C 50.6°F10.3°C 92% Calm Calm -- 29.12 in986.1 mb - 0.00 in0.0 mm 0.00 in0.0 mm
05:00 AM 50.7°F10.4°C 45.4°F7.4°C 82% Calm Calm -- 29.17 in987.8 mb - 0.00 in0.0 mm 0.00 in0.0 mm
06:00 AM 50.4°F10.2°C 50.1°F10.1°C 99% Calm Calm -- 29.19 in988.5 mb - 0.00 in0.0 mm 0.00 in0.0 mm
07:00 AM 50.2°F10.1°C 44.9°F7.2°C 82% Calm Calm -- 29.21 in989.2 mb - 0.00 in0.0 mm 0.00 in0.0 mm
08:00 AM 50.7°F10.4°C 40.5°F4.7°C 68% Calm Calm -- 29.23 in989.8 mb - 0.00 in0.0 mm 0.00 in0.0 mm
09:00 AM 55.0°F12.8°C 46.1°F7.8°C 72% Calm Calm -- 29.25 in990.5 mb - 0.00 in0.0 mm 0.00 in0.0 mm
10:00 AM 60.4°F15.8°C 60.2°F15.7°C 99% Calm Calm -- 29.26 in990.9 mb - 0.00 in0.0 mm 0.00 in0.0 mm
11:00 AM 64.6°F18.1°C 64.3°F17.9°C 99% Calm Calm -- 29.26 in990.9 mb - 0.00 in0.0 mm 0.00 in0.0 mm
12:00 PM 69.6°F20.9°C 69.3°F20.7°C 99% Calm Calm 1.2 mph1.9 kmh 29.27 in991.2 mb - 0.00 in0.0 mm 0.00 in0.0 mm
01:00 PM 73.7°F23.2°C 73.4°F23.0°C 99% Calm Calm -- 29.26 in990.9 mb - 0.00 in0.0 mm 0.00 in0.0 mm
02:00 PM 75.5°F24.2°C 75.2°F24.0°C 99% Calm Calm -- 29.25 in990.5 mb - 0.00 in0.0 mm 0.00 in0.0 mm
03:00 PM 78.6°F25.9°C 78.3°F25.7°C 99% 1.2 mph SE1.9 kmh SE 1.2 mph1.9 kmh 29.24 in990.2 mb - 0.00 in0.0 mm 0.00 in0.0 mm
04:00 PM 65.2°F18.4°C 64.9°F18.3°C 99% Calm Calm 1.2 mph1.9 kmh 29.26 in990.9 mb - 0.00 in0.0 mm 0.00 in0.0 mm
05:00 PM 63.1°F17.3°C 45.7°F7.6°C 53% Calm Calm -- 29.26 in990.9 mb - 0.00 in0.0 mm 0.00 in0.0 mm
06:00 PM 58.8°F14.9°C 49.8°F9.9°C 72% Calm Calm -- 29.28 in991.5 mb - 0.00 in0.0 mm 0.00 in0.0 mm
07:00 PM 55.9°F13.3°C 55.6°F13.1°C 99% Calm Calm -- 29.29 in991.9 mb - 0.00 in0.0 mm 0.00 in0.0 mm
08:00 PM 52.3°F11.3°C 45.3°F7.4°C 77% Calm Calm -- 29.31 in992.6 mb - 0.00 in0.0 mm 0.00 in0.0 mm
09:00 PM 48.9°F9.4°C 48.6°F9.2°C 99% Calm Calm -- 29.34 in993.6 mb - 0.00 in0.0 mm 0.00 in0.0 mm
10:00 PM 46.4°F8.0°C 46.1°F7.8°C 99% Calm Calm -- 29.36 in994.2 mb - 0.00 in0.0 mm 0.00 in0.0 mm
11:00 PM 45.0°F7.2°C 44.7°F7.1°C 99% Calm Calm -- 29.36 in994.2 mb - 0.00 in0.0 mm 0.00 in0.0 mm